Webcam Meteoipassi more information Webcam Meteoipassi


Pisa torre orologio more information Pisa torre orologio


altri nostri siti meteo:

Pomeziameteo 1Sito sul meteo

Pomeziameteo DashboardSito sul meteo

Caput FrigorisSito sul meteo

BarcellonameteoSito sul meteo

MeteoipassiSito sul meteo

ViterbometeoSito sul meteo

MeteotortoretoSito sul meteo

TortoretometeolidoSito sul meteo

MeteoGonzagaSito sul meteo



Vento Inizio validita dal: 21-10-2018 14:00 Fino: 22-10-2018 22:59 Allerta per: Vento Livello: Giallo info button

Weather Underground Storia pagina Testo

Quotidiano Riepilogo per Ottobre 21, 2018 Unita:  Metrico    Inglese   Entrambi
« Indietro Day
Avanti Day »
Quotidiano Settimanale mensile Annuale Personalizzato
  Attuale: Max: Min: Media:
Temperatura: -10.9 °C -17.8 °C -11.1 °C -10 °C
P.to Rugiada: -12.9 °C -17.8 °C -13.1 °C -12.4 °C
Umidita: 79 % Humidity % 71 % 74 %
Vel. Vento: 0 km/h 0 km/h 0 km/h 0.3 km/h
Raffiche: 0 km/h 0 km/h - -
Vento:Calm - - ENE
Pressione: 34510.1 hPa 0 hPa 34510.1 hPa -
Precipitazioni: 0 mm      
Historical Graphs
 
 
Dati di tabella per il Ottobre 21, 2018
Tempo Temperatura P.to Rugiada Pressione Vento Vel. Vento Raffiche Umidita Tasso delle precipitazioni (oraria)
-17.8 °C -17.8 °C 0 hPa Calm     Humidity % 0 mm
00:00 -8.9 °C -11.4 °C 34567.7 hPa ENE 5.1 km/h 5.1 km/h 75 % 0 mm
00:05 -8.9 °C -11.3 °C 34567.7 hPa ENE 5.1 km/h 5.1 km/h 76 % 0 mm
00:10 -9 °C -11.5 °C 34567.7 hPa NE 5.1 km/h 7.7 km/h 75 % 0 mm
00:15 -9.2 °C -11.6 °C 34567.7 hPa ENE 2.6 km/h 7.7 km/h 75 % 0 mm
00:20 -9.2 °C -11.7 °C 34567.7 hPa Calm   2.6 km/h 75 % 0 mm
00:25 -9.2 °C -11.6 °C 34567.7 hPa Calm     75 % 0 mm
00:30 -9.1 °C -11.6 °C 34567.7 hPa Calm     75 % 0 mm
00:35 -9.1 °C -11.6 °C 34567.7 hPa Calm   5.1 km/h 74 % 0 mm
00:40 -9.1 °C -11.7 °C 34567.7 hPa Calm     74 % 0 mm
00:45 -9.2 °C -11.8 °C 34567.7 hPa Calm     74 % 0 mm
00:50 -9.2 °C -11.8 °C 34567.7 hPa Calm     74 % 0 mm
00:55 -9.3 °C -12 °C 34567.7 hPa SE 5.1 km/h 5.1 km/h 73 % 0 mm
01:00 -9.2 °C -11.9 °C 34567.7 hPa Calm   5.1 km/h 73 % 0 mm
01:05 -9.2 °C -11.8 °C 34567.7 hPa Calm   2.6 km/h 73 % 0 mm
01:10 -9.2 °C -11.8 °C 34567.7 hPa Calm     73 % 0 mm
01:15 -9.1 °C -11.8 °C 34567.7 hPa Calm     73 % 0 mm
01:20 -9.1 °C -11.9 °C 34567.7 hPa Calm     72 % 0 mm
01:25 -9.1 °C -11.9 °C 34567.7 hPa Calm     72 % 0 mm
01:30 -9.2 °C -12.1 °C 34567.7 hPa Calm   2.6 km/h 72 % 0 mm
01:35 -9.2 °C -12.1 °C 34567.7 hPa Calm     72 % 0 mm
01:40 -9.3 °C -12.1 °C 34567.7 hPa Calm     72 % 0 mm
01:45 -9.3 °C -12.1 °C 34567.7 hPa Calm     72 % 0 mm
01:50 -9.2 °C -12 °C 34567.7 hPa Calm     72 % 0 mm
01:55 -9.2 °C -12 °C 34567.7 hPa Calm     72 % 0 mm
02:00 -9.2 °C -12 °C 34567.7 hPa Calm     72 % 0 mm
02:05 -9.2 °C -12.1 °C 34567.7 hPa Calm   5.1 km/h 71 % 0 mm
02:10 -9.2 °C -12.2 °C 34567.7 hPa Calm     71 % 0 mm
02:15 -9.3 °C -12.2 °C 34567.7 hPa Calm     71 % 0 mm
02:20 -9.3 °C -12.3 °C 34567.7 hPa Calm     71 % 0 mm
02:25 -9.3 °C -12.3 °C 34567.7 hPa Calm     71 % 0 mm
02:30 -9.3 °C -12.3 °C 34567.7 hPa Calm   5.1 km/h 71 % 0 mm
02:35 -9.4 °C -12.3 °C 34567.7 hPa Calm     71 % 0 mm
02:40 -9.4 °C -12.3 °C 34567.7 hPa Calm     71 % 0 mm
02:45 -9.4 °C -12.3 °C 34567.7 hPa Calm     71 % 0 mm
02:50 -9.4 °C -12.3 °C 34567.7 hPa Calm     71 % 0 mm
02:55 -9.4 °C -12.3 °C 34567.7 hPa Calm     71 % 0 mm
03:00 -9.5 °C -12.4 °C 34567.7 hPa Calm     71 % 0 mm
03:05 -9.6 °C -12.4 °C 34567.7 hPa Calm     71 % 0 mm
03:10 -9.6 °C -12.4 °C 34567.7 hPa Calm     71 % 0 mm
03:15 -9.6 °C -12.4 °C 34567.7 hPa Calm     72 % 0 mm
03:20 -9.6 °C -12.4 °C 34567.7 hPa Calm     72 % 0 mm
03:25 -9.6 °C -12.4 °C 34567.7 hPa Calm     72 % 0 mm
03:30 -9.6 °C -12.4 °C 34567.7 hPa Calm     72 % 0 mm
03:35 -9.7 °C -12.4 °C 34567.7 hPa Calm     72 % 0 mm
03:40 -9.7 °C -12.5 °C 34567.7 hPa Calm     72 % 0 mm
03:45 -9.8 °C -12.6 °C 34567.7 hPa Calm     72 % 0 mm
03:50 -9.9 °C -12.6 °C 34567.7 hPa Calm     73 % 0 mm
03:55 -9.9 °C -12.6 °C 34567.7 hPa Calm     73 % 0 mm
04:00 -10 °C -12.6 °C 34567.7 hPa Calm     74 % 0 mm
04:05 -10 °C -12.6 °C 34567.7 hPa Calm     74 % 0 mm
04:10 -10.1 °C -12.5 °C 34567.7 hPa Calm     75 % 0 mm
04:15 -10.1 °C -12.5 °C 34544 hPa Calm     75 % 0 mm
04:20 -10.2 °C -12.6 °C 34544 hPa Calm     75 % 0 mm
04:25 -10.3 °C -12.7 °C 34544 hPa Calm     75 % 0 mm
04:30 -10.4 °C -13 °C 34544 hPa Calm     74 % 0 mm
04:35 -10.5 °C -13 °C 34544 hPa Calm     74 % 0 mm
04:40 -10.5 °C -12.9 °C 34544 hPa Calm     75 % 0 mm
04:45 -10.5 °C -12.8 °C 34544 hPa Calm     76 % 0 mm
04:50 -10.5 °C -12.8 °C 34544 hPa Calm     76 % 0 mm
04:55 -10.6 °C -12.9 °C 34544 hPa Calm     75 % 0 mm
05:00 -10.6 °C -12.9 °C 34567.7 hPa Calm     76 % 0 mm
05:05 -10.6 °C -12.9 °C 34567.7 hPa Calm     76 % 0 mm
05:10 -10.6 °C -12.7 °C 34567.7 hPa Calm     77 % 0 mm
05:15 -10.5 °C -12.7 °C 34544 hPa Calm     77 % 0 mm
05:20 -10.3 °C -12.4 °C 34544 hPa Calm     78 % 0 mm
05:25 -10.3 °C -12.4 °C 34544 hPa Calm     78 % 0 mm
05:30 -10.3 °C -12.4 °C 34544 hPa Calm     78 % 0 mm
05:35 -10.4 °C -12.5 °C 34544 hPa Calm     78 % 0 mm
05:40 -10.4 °C -12.5 °C 34544 hPa Calm     78 % 0 mm
05:45 -10.7 °C -12.9 °C 34544 hPa Calm     77 % 0 mm
05:50 -10.6 °C -12.8 °C 34544 hPa Calm     77 % 0 mm
05:55 -10.7 °C -12.7 °C 34544 hPa Calm     78 % 0 mm
06:00 -10.8 °C -12.9 °C 34544 hPa Calm     77 % 0 mm
06:05 -10.7 °C -12.8 °C 34544 hPa Calm     78 % 0 mm
06:10 -10.7 °C -12.7 °C 34544 hPa Calm     79 % 0 mm
06:15 -10.7 °C -12.7 °C 34544 hPa Calm     78 % 0 mm
06:20 -10.8 °C -12.9 °C 34544 hPa Calm     78 % 0 mm
06:25 -11 °C -13.1 °C 34544 hPa Calm     78 % 0 mm
06:30 -11.1 °C -13 °C 34544 hPa Calm     79 % 0 mm
06:35 -11 °C -13 °C 34544 hPa NNE 2.6 km/h 2.6 km/h 79 % 0 mm
06:40 -10.8 °C -12.8 °C 34544 hPa NNE 2.6 km/h 2.6 km/h 79 % 0 mm
06:45 -10.7 °C -12.7 °C 34544 hPa Calm   2.6 km/h 79 % 0 mm
06:50 -10.8 °C -12.8 °C 34544 hPa Calm     79 % 0 mm
06:55 -10.8 °C -12.8 °C 34544 hPa Calm     79 % 0 mm
07:00 -10.8 °C -12.8 °C 34544 hPa Calm     79 % 0 mm
07:05 -10.9 °C -12.9 °C 34544 hPa NE 5.1 km/h 5.1 km/h 79 % 0 mm
07:10 -11 °C -13 °C 34544 hPa Calm   5.1 km/h 79 % 0 mm
07:15 -11 °C -13 °C 34510.1 hPa Calm     79 % 0 mm
07:20 -10.9 °C -12.9 °C 34510.1 hPa Calm     79 % 0 mm
Stazione meteorologica Meteo I Passi (PI)
complimenti di Weather Underground - 3 mb

Script sviluppato da  Jim McMurry - jmcmurry@mwt.net Adattato per il modello da  Wim van der Kuil - Leuven-Template.eu

Potete trovare le nostre info meteo anche a:

European Weather Network

Weather Underground

AWEKAS

HAMweather, WeatherForYou, PWS Weather

Strumentazione usata:

Stazione meteo
Oregon Scientific WMR88

Programma gestore dati meteo
WVIEW

Server per i dati meteo
WDS-5

Provider
Anemos WDS-5

Oregon Scientific WMR88

WVIEW

WDS-5

Anemos WDS-5